sensor_id;sensor_type;location;lat;lon;timestamp;P1;durP1;ratioP1;P2;durP2;ratioP2
20910;SDS011;10615;42.702;23.314;2023-02-28T00:00:17;18.60;;;13.27;;
20910;SDS011;10615;42.702;23.314;2023-02-28T00:01:19;18.10;;;12.65;;
20910;SDS011;10615;42.702;23.314;2023-02-28T00:02:20;17.30;;;13.30;;
20910;SDS011;10615;42.702;23.314;2023-02-28T00:03:21;18.50;;;13.13;;
20910;SDS011;10615;42.702;23.314;2023-02-28T00:04:22;17.33;;;12.77;;
20910;SDS011;10615;42.702;23.314;2023-02-28T00:05:23;19.15;;;13.10;;
20910;SDS011;10615;42.702;23.314;2023-02-28T00:06:25;17.20;;;13.20;;
20910;SDS011;10615;42.702;23.314;2023-02-28T00:07:27;19.95;;;13.27;;
20910;SDS011;10615;42.702;23.314;2023-02-28T00:08:28;16.30;;;12.57;;
20910;SDS011;10615;42.702;23.314;2023-02-28T00:09:28;19.05;;;13.20;;
20910;SDS011;10615;42.702;23.314;2023-02-28T00:10:30;17.58;;;13.13;;
20910;SDS011;10615;42.702;23.314;2023-02-28T00:11:31;20.30;;;13.88;;
20910;SDS011;10615;42.702;23.314;2023-02-28T00:12:31;19.45;;;13.38;;
20910;SDS011;10615;42.702;23.314;2023-02-28T00:13:33;18.90;;;13.70;;
20910;SDS011;10615;42.702;23.314;2023-02-28T00:14:36;18.10;;;12.75;;
20910;SDS011;10615;42.702;23.314;2023-02-28T00:15:36;19.20;;;14.57;;
20910;SDS011;10615;42.702;23.314;2023-02-28T00:16:37;21.40;;;14.52;;
20910;SDS011;10615;42.702;23.314;2023-02-28T00:17:38;21.15;;;14.07;;
20910;SDS011;10615;42.702;23.314;2023-02-28T00:18:38;16.67;;;13.20;;
20910;SDS011;10615;42.702;23.314;2023-02-28T00:19:39;20.80;;;14.15;;
20910;SDS011;10615;42.702;23.314;2023-02-28T00:20:40;17.85;;;13.43;;
20910;SDS011;10615;42.702;23.314;2023-02-28T00:21:40;20.63;;;14.43;;
20910;SDS011;10615;42.702;23.314;2023-02-28T00:22:42;20.75;;;14.48;;
20910;SDS011;10615;42.702;23.314;2023-02-28T00:23:44;18.33;;;14.10;;
20910;SDS011;10615;42.702;23.314;2023-02-28T00:24:45;19.65;;;14.15;;
20910;SDS011;10615;42.702;23.314;2023-02-28T00:25:46;19.13;;;13.73;;
20910;SDS011;10615;42.702;23.314;2023-02-28T00:26:46;17.17;;;13.40;;
20910;SDS011;10615;42.702;23.314;2023-02-28T00:27:47;19.67;;;14.18;;
20910;SDS011;10615;42.702;23.314;2023-02-28T00:28:48;21.25;;;14.10;;
20910;SDS011;10615;42.702;23.314;2023-02-28T00:29:49;19.60;;;13.75;;
20910;SDS011;10615;42.702;23.314;2023-02-28T00:30:49;20.52;;;14.35;;
20910;SDS011;10615;42.702;23.314;2023-02-28T00:31:50;18.10;;;13.70;;
20910;SDS011;10615;42.702;23.314;2023-02-28T00:32:51;17.00;;;13.13;;
20910;SDS011;10615;42.702;23.314;2023-02-28T00:33:51;19.63;;;14.25;;
20910;SDS011;10615;42.702;23.314;2023-02-28T00:34:52;20.50;;;14.40;;
20910;SDS011;10615;42.702;23.314;2023-02-28T00:36:00;21.55;;;14.93;;
20910;SDS011;10615;42.702;23.314;2023-02-28T00:37:04;34.13;;;15.25;;
20910;SDS011;10615;42.702;23.314;2023-02-28T00:38:06;19.13;;;14.55;;
20910;SDS011;10615;42.702;23.314;2023-02-28T00:39:06;18.98;;;15.18;;
20910;SDS011;10615;42.702;23.314;2023-02-28T00:40:07;22.50;;;16.60;;
20910;SDS011;10615;42.702;23.314;2023-02-28T00:41:09;21.13;;;15.77;;
20910;SDS011;10615;42.702;23.314;2023-02-28T00:42:10;24.10;;;17.15;;
20910;SDS011;10615;42.702;23.314;2023-02-28T00:43:10;25.42;;;17.48;;
20910;SDS011;10615;42.702;23.314;2023-02-28T00:44:11;23.85;;;17.27;;
20910;SDS011;10615;42.702;23.314;2023-02-28T00:45:11;25.08;;;17.25;;
20910;SDS011;10615;42.702;23.314;2023-02-28T00:46:12;22.58;;;17.90;;
20910;SDS011;10615;42.702;23.314;2023-02-28T00:47:13;25.23;;;17.90;;
20910;SDS011;10615;42.702;23.314;2023-02-28T00:48:14;24.27;;;18.13;;
20910;SDS011;10615;42.702;23.314;2023-02-28T00:49:16;26.55;;;19.30;;
20910;SDS011;10615;42.702;23.314;2023-02-28T00:50:17;25.00;;;18.92;;
20910;SDS011;10615;42.702;23.314;2023-02-28T00:51:20;30.00;;;19.55;;
20910;SDS011;10615;42.702;23.314;2023-02-28T00:52:21;25.88;;;19.73;;
20910;SDS011;10615;42.702;23.314;2023-02-28T00:53:22;25.83;;;19.40;;
20910;SDS011;10615;42.702;23.314;2023-02-28T00:54:23;26.35;;;19.45;;
20910;SDS011;10615;42.702;23.314;2023-02-28T00:55:24;24.58;;;18.42;;
20910;SDS011;10615;42.702;23.314;2023-02-28T00:56:24;30.27;;;20.95;;
20910;SDS011;10615;42.702;23.314;2023-02-28T00:57:25;29.67;;;20.25;;
20910;SDS011;10615;42.702;23.314;2023-02-28T00:58:26;26.08;;;19.00;;
20910;SDS011;10615;42.702;23.314;2023-02-28T00:59:27;27.63;;;19.10;;
20910;SDS011;10615;42.702;23.314;2023-02-28T01:00:27;25.20;;;17.83;;
20910;SDS011;10615;42.702;23.314;2023-02-28T01:01:28;24.50;;;18.75;;
20910;SDS011;10615;42.702;23.314;2023-02-28T01:02:28;25.73;;;18.27;;
20910;SDS011;10615;42.702;23.314;2023-02-28T01:03:29;24.55;;;17.48;;
20910;SDS011;10615;42.702;23.314;2023-02-28T01:04:30;24.42;;;17.33;;
20910;SDS011;10615;42.702;23.314;2023-02-28T01:05:30;22.55;;;17.17;;
20910;SDS011;10615;42.702;23.314;2023-02-28T01:06:31;25.67;;;17.83;;
20910;SDS011;10615;42.702;23.314;2023-02-28T01:07:32;23.50;;;16.88;;
20910;SDS011;10615;42.702;23.314;2023-02-28T01:08:32;25.67;;;17.00;;
20910;SDS011;10615;42.702;23.314;2023-02-28T01:09:33;22.38;;;16.73;;
20910;SDS011;10615;42.702;23.314;2023-02-28T01:10:34;21.73;;;16.65;;
20910;SDS011;10615;42.702;23.314;2023-02-28T01:11:36;21.00;;;16.17;;
20910;SDS011;10615;42.702;23.314;2023-02-28T01:12:38;24.10;;;17.15;;
20910;SDS011;10615;42.702;23.314;2023-02-28T01:13:38;22.67;;;16.02;;
20910;SDS011;10615;42.702;23.314;2023-02-28T01:14:39;23.52;;;16.40;;
20910;SDS011;10615;42.702;23.314;2023-02-28T01:15:41;21.63;;;16.45;;
20910;SDS011;10615;42.702;23.314;2023-02-28T01:16:45;24.13;;;16.17;;
20910;SDS011;10615;42.702;23.314;2023-02-28T01:17:46;24.05;;;16.70;;
20910;SDS011;10615;42.702;23.314;2023-02-28T01:18:46;22.13;;;15.43;;
20910;SDS011;10615;42.702;23.314;2023-02-28T01:19:47;21.42;;;15.10;;
20910;SDS011;10615;42.702;23.314;2023-02-28T01:20:48;22.67;;;16.02;;
20910;SDS011;10615;42.702;23.314;2023-02-28T01:21:49;21.50;;;15.13;;
20910;SDS011;10615;42.702;23.314;2023-02-28T01:22:49;23.00;;;15.07;;
20910;SDS011;10615;42.702;23.314;2023-02-28T01:23:50;21.23;;;15.43;;
20910;SDS011;10615;42.702;23.314;2023-02-28T01:24:51;22.27;;;16.33;;
20910;SDS011;10615;42.702;23.314;2023-02-28T01:25:52;24.48;;;17.15;;
20910;SDS011;10615;42.702;23.314;2023-02-28T01:26:53;21.52;;;16.52;;
20910;SDS011;10615;42.702;23.314;2023-02-28T01:27:54;22.35;;;16.80;;
20910;SDS011;10615;42.702;23.314;2023-02-28T01:28:54;23.95;;;18.33;;
20910;SDS011;10615;42.702;23.314;2023-02-28T01:29:55;27.58;;;19.25;;
20910;SDS011;10615;42.702;23.314;2023-02-28T01:30:56;27.67;;;19.45;;
20910;SDS011;10615;42.702;23.314;2023-02-28T01:31:56;25.42;;;17.77;;
20910;SDS011;10615;42.702;23.314;2023-02-28T01:32:59;25.63;;;18.27;;
20910;SDS011;10615;42.702;23.314;2023-02-28T01:34:00;25.98;;;18.73;;
20910;SDS011;10615;42.702;23.314;2023-02-28T01:35:01;30.70;;;22.02;;
20910;SDS011;10615;42.702;23.314;2023-02-28T01:36:06;29.40;;;21.52;;
20910;SDS011;10615;42.702;23.314;2023-02-28T01:37:17;28.08;;;21.83;;
20910;SDS011;10615;42.702;23.314;2023-02-28T01:38:18;34.42;;;23.85;;
20910;SDS011;10615;42.702;23.314;2023-02-28T01:39:19;31.70;;;22.33;;
20910;SDS011;10615;42.702;23.314;2023-02-28T01:40:19;33.55;;;22.70;;
20910;SDS011;10615;42.702;23.314;2023-02-28T01:41:22;31.90;;;22.83;;
20910;SDS011;10615;42.702;23.314;2023-02-28T01:42:25;30.50;;;21.27;;
20910;SDS011;10615;42.702;23.314;2023-02-28T01:46:33;30.52;;;21.90;;
20910;SDS011;10615;42.702;23.314;2023-02-28T01:47:36;30.38;;;21.73;;
20910;SDS011;10615;42.702;23.314;2023-02-28T01:48:45;32.95;;;22.33;;
20910;SDS011;10615;42.702;23.314;2023-02-28T01:49:49;29.45;;;20.02;;
20910;SDS011;10615;42.702;23.314;2023-02-28T01:50:51;33.45;;;22.15;;
20910;SDS011;10615;42.702;23.314;2023-02-28T01:51:54;34.33;;;22.33;;
20910;SDS011;10615;42.702;23.314;2023-02-28T01:52:57;33.85;;;22.30;;
20910;SDS011;10615;42.702;23.314;2023-02-28T01:54:02;32.58;;;22.17;;
20910;SDS011;10615;42.702;23.314;2023-02-28T01:55:13;32.78;;;21.52;;
20910;SDS011;10615;42.702;23.314;2023-02-28T01:56:17;29.92;;;20.20;;
20910;SDS011;10615;42.702;23.314;2023-02-28T01:57:24;28.30;;;20.13;;
20910;SDS011;10615;42.702;23.314;2023-02-28T01:58:30;28.38;;;20.80;;
20910;SDS011;10615;42.702;23.314;2023-02-28T01:59:39;31.98;;;19.70;;
20910;SDS011;10615;42.702;23.314;2023-02-28T02:00:48;30.77;;;19.90;;
20910;SDS011;10615;42.702;23.314;2023-02-28T02:01:49;31.23;;;20.45;;
20910;SDS011;10615;42.702;23.314;2023-02-28T02:02:51;30.85;;;20.05;;
20910;SDS011;10615;42.702;23.314;2023-02-28T02:03:56;28.38;;;19.58;;
20910;SDS011;10615;42.702;23.314;2023-02-28T02:05:22;31.38;;;20.95;;
20910;SDS011;10615;42.702;23.314;2023-02-28T02:06:24;31.20;;;19.75;;
20910;SDS011;10615;42.702;23.314;2023-02-28T02:07:29;30.25;;;20.02;;
20910;SDS011;10615;42.702;23.314;2023-02-28T02:08:33;31.25;;;19.30;;
20910;SDS011;10615;42.702;23.314;2023-02-28T02:09:34;31.08;;;20.67;;
20910;SDS011;10615;42.702;23.314;2023-02-28T02:11:35;31.50;;;20.45;;
20910;SDS011;10615;42.702;23.314;2023-02-28T02:15:00;33.00;;;20.90;;
20910;SDS011;10615;42.702;23.314;2023-02-28T02:23:18;28.40;;;19.60;;
20910;SDS011;10615;42.702;23.314;2023-02-28T02:24:48;30.92;;;19.30;;
20910;SDS011;10615;42.702;23.314;2023-02-28T02:25:56;30.35;;;20.55;;
20910;SDS011;10615;42.702;23.314;2023-02-28T02:31:06;29.02;;;18.90;;
20910;SDS011;10615;42.702;23.314;2023-02-28T02:34:31;29.23;;;19.50;;
20910;SDS011;10615;42.702;23.314;2023-02-28T02:35:27;31.15;;;19.83;;
20910;SDS011;10615;42.702;23.314;2023-02-28T02:38:07;29.63;;;19.90;;
20910;SDS011;10615;42.702;23.314;2023-02-28T02:40:27;32.15;;;21.42;;
20910;SDS011;10615;42.702;23.314;2023-02-28T02:41:50;31.77;;;20.63;;
20910;SDS011;10615;42.702;23.314;2023-02-28T02:43:01;33.55;;;21.73;;
20910;SDS011;10615;42.702;23.314;2023-02-28T02:45:51;34.28;;;21.92;;
20910;SDS011;10615;42.702;23.314;2023-02-28T02:46:59;35.10;;;22.67;;
20910;SDS011;10615;42.702;23.314;2023-02-28T02:48:07;36.83;;;23.60;;
20910;SDS011;10615;42.702;23.314;2023-02-28T02:49:14;36.97;;;22.27;;
20910;SDS011;10615;42.702;23.314;2023-02-28T02:50:26;34.88;;;22.10;;
20910;SDS011;10615;42.702;23.314;2023-02-28T02:51:33;38.47;;;23.10;;
20910;SDS011;10615;42.702;23.314;2023-02-28T02:52:46;35.42;;;23.05;;
20910;SDS011;10615;42.702;23.314;2023-02-28T02:53:59;35.42;;;23.33;;
20910;SDS011;10615;42.702;23.314;2023-02-28T02:55:08;37.60;;;24.02;;
20910;SDS011;10615;42.702;23.314;2023-02-28T02:56:12;36.30;;;22.38;;
20910;SDS011;10615;42.702;23.314;2023-02-28T02:57:19;38.60;;;24.30;;
20910;SDS011;10615;42.702;23.314;2023-02-28T02:58:25;38.28;;;22.95;;
20910;SDS011;10615;42.702;23.314;2023-02-28T02:59:29;36.53;;;23.38;;
20910;SDS011;10615;42.702;23.314;2023-02-28T03:00:37;37.58;;;23.42;;
20910;SDS011;10615;42.702;23.314;2023-02-28T03:01:41;40.25;;;23.45;;
20910;SDS011;10615;42.702;23.314;2023-02-28T03:02:42;39.17;;;23.08;;
20910;SDS011;10615;42.702;23.314;2023-02-28T03:03:45;38.60;;;24.10;;
20910;SDS011;10615;42.702;23.314;2023-02-28T03:04:48;37.65;;;23.52;;
20910;SDS011;10615;42.702;23.314;2023-02-28T03:05:52;37.13;;;23.58;;
20910;SDS011;10615;42.702;23.314;2023-02-28T03:06:53;35.95;;;22.73;;
20910;SDS011;10615;42.702;23.314;2023-02-28T03:07:57;34.78;;;21.55;;
20910;SDS011;10615;42.702;23.314;2023-02-28T03:08:57;32.38;;;21.55;;
20910;SDS011;10615;42.702;23.314;2023-02-28T03:10:00;36.63;;;22.58;;
20910;SDS011;10615;42.702;23.314;2023-02-28T03:11:02;31.98;;;21.17;;
20910;SDS011;10615;42.702;23.314;2023-02-28T03:12:08;34.15;;;21.23;;
20910;SDS011;10615;42.702;23.314;2023-02-28T03:13:16;33.60;;;21.25;;
20910;SDS011;10615;42.702;23.314;2023-02-28T03:18:39;32.28;;;20.27;;
20910;SDS011;10615;42.702;23.314;2023-02-28T03:22:27;33.50;;;21.42;;
20910;SDS011;10615;42.702;23.314;2023-02-28T03:23:53;30.85;;;20.75;;
20910;SDS011;10615;42.702;23.314;2023-02-28T03:25:04;36.90;;;21.65;;
20910;SDS011;10615;42.702;23.314;2023-02-28T03:26:13;32.85;;;21.88;;
20910;SDS011;10615;42.702;23.314;2023-02-28T03:28:35;34.15;;;21.95;;
20910;SDS011;10615;42.702;23.314;2023-02-28T03:30:00;35.72;;;22.23;;
20910;SDS011;10615;42.702;23.314;2023-02-28T03:31:12;33.92;;;22.75;;
20910;SDS011;10615;42.702;23.314;2023-02-28T03:33:28;38.60;;;23.13;;
20910;SDS011;10615;42.702;23.314;2023-02-28T03:34:33;34.30;;;21.98;;
20910;SDS011;10615;42.702;23.314;2023-02-28T03:36:21;34.83;;;22.85;;
20910;SDS011;10615;42.702;23.314;2023-02-28T03:37:08;32.20;;;21.85;;
20910;SDS011;10615;42.702;23.314;2023-02-28T03:38:26;35.33;;;21.85;;
20910;SDS011;10615;42.702;23.314;2023-02-28T03:39:40;33.83;;;22.10;;
20910;SDS011;10615;42.702;23.314;2023-02-28T03:41:09;34.13;;;21.83;;
20910;SDS011;10615;42.702;23.314;2023-02-28T03:42:13;37.15;;;22.90;;
20910;SDS011;10615;42.702;23.314;2023-02-28T03:43:25;36.15;;;22.70;;
20910;SDS011;10615;42.702;23.314;2023-02-28T03:44:32;33.80;;;22.13;;
20910;SDS011;10615;42.702;23.314;2023-02-28T03:45:37;36.08;;;22.75;;
20910;SDS011;10615;42.702;23.314;2023-02-28T03:46:40;35.53;;;22.83;;
20910;SDS011;10615;42.702;23.314;2023-02-28T03:47:54;33.75;;;22.90;;
20910;SDS011;10615;42.702;23.314;2023-02-28T03:49:15;34.15;;;22.50;;
20910;SDS011;10615;42.702;23.314;2023-02-28T03:50:21;34.45;;;22.83;;
20910;SDS011;10615;42.702;23.314;2023-02-28T03:51:29;33.22;;;21.45;;
20910;SDS011;10615;42.702;23.314;2023-02-28T03:52:33;34.38;;;23.13;;
20910;SDS011;10615;42.702;23.314;2023-02-28T03:54:02;31.30;;;20.90;;
20910;SDS011;10615;42.702;23.314;2023-02-28T03:55:06;32.15;;;21.00;;
20910;SDS011;10615;42.702;23.314;2023-02-28T03:56:17;33.13;;;21.13;;
20910;SDS011;10615;42.702;23.314;2023-02-28T03:57:33;33.28;;;22.05;;
20910;SDS011;10615;42.702;23.314;2023-02-28T04:00:31;31.25;;;20.33;;
20910;SDS011;10615;42.702;23.314;2023-02-28T04:01:38;32.78;;;21.52;;
20910;SDS011;10615;42.702;23.314;2023-02-28T04:02:41;32.05;;;21.27;;
20910;SDS011;10615;42.702;23.314;2023-02-28T04:03:42;31.88;;;21.05;;
20910;SDS011;10615;42.702;23.314;2023-02-28T04:04:42;30.00;;;21.02;;
20910;SDS011;10615;42.702;23.314;2023-02-28T04:05:50;29.88;;;19.58;;
20910;SDS011;10615;42.702;23.314;2023-02-28T04:06:52;33.78;;;21.65;;
20910;SDS011;10615;42.702;23.314;2023-02-28T04:08:05;30.42;;;19.73;;
20910;SDS011;10615;42.702;23.314;2023-02-28T04:09:08;29.85;;;19.85;;
20910;SDS011;10615;42.702;23.314;2023-02-28T04:10:11;29.63;;;19.45;;
20910;SDS011;10615;42.702;23.314;2023-02-28T04:12:19;26.23;;;18.45;;
20910;SDS011;10615;42.702;23.314;2023-02-28T04:13:23;27.65;;;17.98;;
20910;SDS011;10615;42.702;23.314;2023-02-28T04:14:23;29.98;;;18.92;;
20910;SDS011;10615;42.702;23.314;2023-02-28T04:15:24;27.40;;;18.60;;
20910;SDS011;10615;42.702;23.314;2023-02-28T04:16:27;27.20;;;18.25;;
20910;SDS011;10615;42.702;23.314;2023-02-28T04:17:28;26.30;;;18.45;;
20910;SDS011;10615;42.702;23.314;2023-02-28T04:18:28;26.65;;;18.10;;
20910;SDS011;10615;42.702;23.314;2023-02-28T04:19:29;28.73;;;18.70;;
20910;SDS011;10615;42.702;23.314;2023-02-28T04:20:30;27.30;;;18.63;;
20910;SDS011;10615;42.702;23.314;2023-02-28T04:23:42;32.88;;;20.63;;
20910;SDS011;10615;42.702;23.314;2023-02-28T04:24:42;35.92;;;21.42;;
20910;SDS011;10615;42.702;23.314;2023-02-28T04:25:43;34.58;;;21.05;;
20910;SDS011;10615;42.702;23.314;2023-02-28T04:26:45;36.60;;;21.40;;
20910;SDS011;10615;42.702;23.314;2023-02-28T04:27:47;34.75;;;21.73;;
20910;SDS011;10615;42.702;23.314;2023-02-28T04:28:48;33.63;;;21.60;;
20910;SDS011;10615;42.702;23.314;2023-02-28T04:29:48;33.60;;;21.35;;
20910;SDS011;10615;42.702;23.314;2023-02-28T04:30:59;36.20;;;22.52;;
20910;SDS011;10615;42.702;23.314;2023-02-28T04:32:02;33.83;;;21.45;;
20910;SDS011;10615;42.702;23.314;2023-02-28T04:33:03;38.05;;;21.80;;
20910;SDS011;10615;42.702;23.314;2023-02-28T04:34:03;38.67;;;22.42;;
20910;SDS011;10615;42.702;23.314;2023-02-28T04:35:05;34.92;;;21.38;;
20910;SDS011;10615;42.702;23.314;2023-02-28T04:36:07;33.65;;;21.00;;
20910;SDS011;10615;42.702;23.314;2023-02-28T04:37:08;31.30;;;20.70;;
20910;SDS011;10615;42.702;23.314;2023-02-28T04:38:09;31.52;;;20.52;;
20910;SDS011;10615;42.702;23.314;2023-02-28T04:39:09;32.13;;;20.63;;
20910;SDS011;10615;42.702;23.314;2023-02-28T04:40:10;34.38;;;22.42;;
20910;SDS011;10615;42.702;23.314;2023-02-28T04:41:15;33.72;;;22.67;;
20910;SDS011;10615;42.702;23.314;2023-02-28T04:42:16;35.97;;;24.42;;
20910;SDS011;10615;42.702;23.314;2023-02-28T04:43:17;46.33;;;30.90;;
20910;SDS011;10615;42.702;23.314;2023-02-28T04:44:17;48.42;;;33.70;;
20910;SDS011;10615;42.702;23.314;2023-02-28T04:45:18;67.07;;;49.63;;
20910;SDS011;10615;42.702;23.314;2023-02-28T04:46:19;68.88;;;48.65;;
20910;SDS011;10615;42.702;23.314;2023-02-28T04:47:19;64.55;;;45.90;;
20910;SDS011;10615;42.702;23.314;2023-02-28T04:48:20;64.22;;;48.75;;
20910;SDS011;10615;42.702;23.314;2023-02-28T04:49:21;64.55;;;46.75;;
20910;SDS011;10615;42.702;23.314;2023-02-28T04:50:21;74.35;;;55.58;;
20910;SDS011;10615;42.702;23.314;2023-02-28T04:51:22;68.97;;;51.78;;
20910;SDS011;10615;42.702;23.314;2023-02-28T04:52:23;80.03;;;60.10;;
20910;SDS011;10615;42.702;23.314;2023-02-28T04:53:23;91.22;;;72.82;;
20910;SDS011;10615;42.702;23.314;2023-02-28T04:54:24;97.07;;;76.47;;
20910;SDS011;10615;42.702;23.314;2023-02-28T04:55:24;98.25;;;75.80;;
20910;SDS011;10615;42.702;23.314;2023-02-28T04:56:25;89.30;;;69.88;;
20910;SDS011;10615;42.702;23.314;2023-02-28T04:57:26;83.07;;;60.58;;
20910;SDS011;10615;42.702;23.314;2023-02-28T04:58:26;84.75;;;63.78;;
20910;SDS011;10615;42.702;23.314;2023-02-28T04:59:28;89.28;;;62.88;;
20910;SDS011;10615;42.702;23.314;2023-02-28T05:00:28;89.75;;;62.17;;
20910;SDS011;10615;42.702;23.314;2023-02-28T05:01:30;87.20;;;61.90;;
20910;SDS011;10615;42.702;23.314;2023-02-28T05:02:34;91.75;;;64.22;;
20910;SDS011;10615;42.702;23.314;2023-02-28T05:03:35;87.88;;;61.17;;
20910;SDS011;10615;42.702;23.314;2023-02-28T05:04:36;97.32;;;65.38;;
20910;SDS011;10615;42.702;23.314;2023-02-28T05:05:36;88.20;;;59.35;;
20910;SDS011;10615;42.702;23.314;2023-02-28T05:06:37;93.75;;;63.75;;
20910;SDS011;10615;42.702;23.314;2023-02-28T05:07:38;91.88;;;59.53;;
20910;SDS011;10615;42.702;23.314;2023-02-28T05:08:39;89.63;;;61.63;;
20910;SDS011;10615;42.702;23.314;2023-02-28T05:09:40;90.25;;;58.90;;
20910;SDS011;10615;42.702;23.314;2023-02-28T05:10:40;86.18;;;56.20;;
20910;SDS011;10615;42.702;23.314;2023-02-28T05:11:41;77.53;;;47.20;;
20910;SDS011;10615;42.702;23.314;2023-02-28T05:12:42;75.53;;;46.17;;
20910;SDS011;10615;42.702;23.314;2023-02-28T05:13:43;69.90;;;40.38;;
20910;SDS011;10615;42.702;23.314;2023-02-28T05:14:44;65.85;;;39.58;;
20910;SDS011;10615;42.702;23.314;2023-02-28T05:15:44;75.50;;;41.83;;
20910;SDS011;10615;42.702;23.314;2023-02-28T05:16:45;70.82;;;43.30;;
20910;SDS011;10615;42.702;23.314;2023-02-28T05:17:46;66.50;;;41.70;;
20910;SDS011;10615;42.702;23.314;2023-02-28T05:18:46;68.82;;;41.40;;
20910;SDS011;10615;42.702;23.314;2023-02-28T05:19:47;69.78;;;42.33;;
20910;SDS011;10615;42.702;23.314;2023-02-28T05:20:48;65.93;;;37.50;;
20910;SDS011;10615;42.702;23.314;2023-02-28T05:21:49;69.45;;;37.28;;
20910;SDS011;10615;42.702;23.314;2023-02-28T05:22:52;60.65;;;35.35;;
20910;SDS011;10615;42.702;23.314;2023-02-28T05:23:53;62.58;;;36.60;;
20910;SDS011;10615;42.702;23.314;2023-02-28T05:24:54;58.72;;;36.20;;
20910;SDS011;10615;42.702;23.314;2023-02-28T05:25:55;62.42;;;35.42;;
20910;SDS011;10615;42.702;23.314;2023-02-28T05:26:56;61.60;;;35.53;;
20910;SDS011;10615;42.702;23.314;2023-02-28T05:27:57;57.90;;;34.83;;
20910;SDS011;10615;42.702;23.314;2023-02-28T05:28:58;90.63;;;47.83;;
20910;SDS011;10615;42.702;23.314;2023-02-28T05:29:59;93.55;;;53.67;;
20910;SDS011;10615;42.702;23.314;2023-02-28T05:31:03;91.72;;;48.58;;
20910;SDS011;10615;42.702;23.314;2023-02-28T05:32:04;85.75;;;44.45;;
20910;SDS011;10615;42.702;23.314;2023-02-28T05:33:05;75.85;;;43.20;;
20910;SDS011;10615;42.702;23.314;2023-02-28T05:34:05;77.55;;;42.20;;
20910;SDS011;10615;42.702;23.314;2023-02-28T05:35:06;70.97;;;39.50;;
20910;SDS011;10615;42.702;23.314;2023-02-28T05:36:07;64.78;;;37.58;;
20910;SDS011;10615;42.702;23.314;2023-02-28T05:37:11;59.80;;;33.95;;
20910;SDS011;10615;42.702;23.314;2023-02-28T05:38:13;63.65;;;34.38;;
20910;SDS011;10615;42.702;23.314;2023-02-28T05:39:13;71.53;;;35.83;;
20910;SDS011;10615;42.702;23.314;2023-02-28T05:40:14;65.43;;;34.72;;
20910;SDS011;10615;42.702;23.314;2023-02-28T05:41:15;63.00;;;35.55;;
20910;SDS011;10615;42.702;23.314;2023-02-28T05:42:17;63.90;;;34.25;;
20910;SDS011;10615;42.702;23.314;2023-02-28T05:43:18;71.72;;;35.47;;
20910;SDS011;10615;42.702;23.314;2023-02-28T05:44:18;72.05;;;35.28;;
20910;SDS011;10615;42.702;23.314;2023-02-28T05:45:19;61.88;;;33.80;;
20910;SDS011;10615;42.702;23.314;2023-02-28T05:46:20;67.60;;;36.38;;
20910;SDS011;10615;42.702;23.314;2023-02-28T05:47:21;69.90;;;36.08;;
20910;SDS011;10615;42.702;23.314;2023-02-28T05:48:21;60.67;;;34.70;;
20910;SDS011;10615;42.702;23.314;2023-02-28T05:49:22;63.17;;;33.20;;
20910;SDS011;10615;42.702;23.314;2023-02-28T05:50:22;66.50;;;35.03;;
20910;SDS011;10615;42.702;23.314;2023-02-28T05:51:23;58.00;;;32.80;;
20910;SDS011;10615;42.702;23.314;2023-02-28T05:52:24;60.60;;;33.13;;
20910;SDS011;10615;42.702;23.314;2023-02-28T05:53:24;62.88;;;34.15;;
20910;SDS011;10615;42.702;23.314;2023-02-28T05:54:26;63.88;;;34.50;;
20910;SDS011;10615;42.702;23.314;2023-02-28T05:55:26;61.33;;;33.28;;
20910;SDS011;10615;42.702;23.314;2023-02-28T05:56:27;61.58;;;32.50;;
20910;SDS011;10615;42.702;23.314;2023-02-28T05:57:28;55.85;;;31.80;;
20910;SDS011;10615;42.702;23.314;2023-02-28T05:58:29;64.50;;;33.15;;
20910;SDS011;10615;42.702;23.314;2023-02-28T05:59:30;55.88;;;31.77;;
20910;SDS011;10615;42.702;23.314;2023-02-28T06:00:31;63.45;;;33.78;;
20910;SDS011;10615;42.702;23.314;2023-02-28T06:01:42;59.72;;;32.53;;
20910;SDS011;10615;42.702;23.314;2023-02-28T06:02:48;61.22;;;33.25;;
20910;SDS011;10615;42.702;23.314;2023-02-28T06:03:48;58.58;;;32.88;;
20910;SDS011;10615;42.702;23.314;2023-02-28T06:04:49;60.58;;;34.30;;
20910;SDS011;10615;42.702;23.314;2023-02-28T06:05:50;72.50;;;33.88;;
20910;SDS011;10615;42.702;23.314;2023-02-28T06:06:51;62.97;;;33.03;;
20910;SDS011;10615;42.702;23.314;2023-02-28T06:07:51;61.95;;;33.78;;
20910;SDS011;10615;42.702;23.314;2023-02-28T06:08:52;59.40;;;32.72;;
20910;SDS011;10615;42.702;23.314;2023-02-28T06:09:53;60.90;;;33.47;;
20910;SDS011;10615;42.702;23.314;2023-02-28T06:10:53;59.47;;;33.10;;
20910;SDS011;10615;42.702;23.314;2023-02-28T06:11:54;55.67;;;31.33;;
20910;SDS011;10615;42.702;23.314;2023-02-28T06:13:01;62.95;;;33.28;;
20910;SDS011;10615;42.702;23.314;2023-02-28T06:14:21;55.08;;;29.75;;
20910;SDS011;10615;42.702;23.314;2023-02-28T06:15:21;56.05;;;30.38;;
20910;SDS011;10615;42.702;23.314;2023-02-28T06:16:22;55.67;;;32.13;;
20910;SDS011;10615;42.702;23.314;2023-02-28T06:17:24;52.50;;;29.83;;
20910;SDS011;10615;42.702;23.314;2023-02-28T06:18:24;51.67;;;30.42;;
20910;SDS011;10615;42.702;23.314;2023-02-28T06:19:25;55.53;;;30.92;;
20910;SDS011;10615;42.702;23.314;2023-02-28T06:20:27;53.47;;;31.45;;
20910;SDS011;10615;42.702;23.314;2023-02-28T06:21:30;54.47;;;31.90;;
20910;SDS011;10615;42.702;23.314;2023-02-28T06:22:31;61.92;;;33.50;;
20910;SDS011;10615;42.702;23.314;2023-02-28T06:23:32;56.42;;;32.50;;
20910;SDS011;10615;42.702;23.314;2023-02-28T06:24:32;59.22;;;33.63;;
20910;SDS011;10615;42.702;23.314;2023-02-28T06:25:33;56.47;;;32.28;;
20910;SDS011;10615;42.702;23.314;2023-02-28T06:26:34;53.65;;;32.60;;
20910;SDS011;10615;42.702;23.314;2023-02-28T06:27:35;57.25;;;34.50;;
20910;SDS011;10615;42.702;23.314;2023-02-28T06:28:36;58.50;;;33.83;;
20910;SDS011;10615;42.702;23.314;2023-02-28T06:29:37;58.05;;;33.08;;
20910;SDS011;10615;42.702;23.314;2023-02-28T06:30:39;56.88;;;33.67;;
20910;SDS011;10615;42.702;23.314;2023-02-28T06:31:40;55.63;;;33.15;;
20910;SDS011;10615;42.702;23.314;2023-02-28T06:32:41;58.33;;;35.13;;
20910;SDS011;10615;42.702;23.314;2023-02-28T06:33:42;56.45;;;33.53;;
20910;SDS011;10615;42.702;23.314;2023-02-28T06:34:43;53.25;;;32.75;;
20910;SDS011;10615;42.702;23.314;2023-02-28T06:35:44;67.25;;;43.70;;
20910;SDS011;10615;42.702;23.314;2023-02-28T06:36:49;62.58;;;38.03;;
20910;SDS011;10615;42.702;23.314;2023-02-28T06:37:51;59.58;;;34.55;;
20910;SDS011;10615;42.702;23.314;2023-02-28T06:38:52;57.72;;;33.47;;
20910;SDS011;10615;42.702;23.314;2023-02-28T06:39:55;58.53;;;33.58;;
20910;SDS011;10615;42.702;23.314;2023-02-28T06:40:56;55.03;;;34.45;;
20910;SDS011;10615;42.702;23.314;2023-02-28T06:41:58;59.78;;;35.00;;
20910;SDS011;10615;42.702;23.314;2023-02-28T06:42:58;60.63;;;35.33;;